sensor_id;sensor_type;location;lat;lon;timestamp;P1;durP1;ratioP1;P2;durP2;ratioP2
41546;SDS011;27271;45.412;10.852;2023-03-14T00:00:59;24.45;;;12.38;;
41546;SDS011;27271;45.412;10.852;2023-03-14T00:04:21;21.08;;;11.68;;
41546;SDS011;27271;45.412;10.852;2023-03-14T00:07:43;27.92;;;14.18;;
41546;SDS011;27271;45.412;10.852;2023-03-14T00:11:06;25.55;;;12.23;;
41546;SDS011;27271;45.412;10.852;2023-03-14T00:14:36;28.15;;;12.90;;
41546;SDS011;27271;45.412;10.852;2023-03-14T00:17:58;26.20;;;12.15;;
41546;SDS011;27271;45.412;10.852;2023-03-14T00:21:20;23.13;;;12.93;;
41546;SDS011;27271;45.412;10.852;2023-03-14T00:24:42;31.90;;;13.77;;
41546;SDS011;27271;45.412;10.852;2023-03-14T00:28:04;22.55;;;11.90;;
41546;SDS011;27271;45.412;10.852;2023-03-14T00:31:26;23.45;;;12.07;;
41546;SDS011;27271;45.412;10.852;2023-03-14T00:34:48;27.83;;;13.07;;
41546;SDS011;27271;45.412;10.852;2023-03-14T00:38:11;26.63;;;14.32;;
41546;SDS011;27271;45.412;10.852;2023-03-14T00:41:33;24.52;;;13.07;;
41546;SDS011;27271;45.412;10.852;2023-03-14T00:44:55;24.25;;;12.65;;
41546;SDS011;27271;45.412;10.852;2023-03-14T00:48:17;29.13;;;14.15;;
41546;SDS011;27271;45.412;10.852;2023-03-14T00:51:40;25.80;;;12.57;;
41546;SDS011;27271;45.412;10.852;2023-03-14T00:55:03;22.33;;;12.65;;
41546;SDS011;27271;45.412;10.852;2023-03-14T00:58:25;27.20;;;13.13;;
41546;SDS011;27271;45.412;10.852;2023-03-14T01:01:47;23.02;;;12.68;;
41546;SDS011;27271;45.412;10.852;2023-03-14T01:05:09;24.25;;;12.43;;
41546;SDS011;27271;45.412;10.852;2023-03-14T01:08:31;26.60;;;13.27;;
41546;SDS011;27271;45.412;10.852;2023-03-14T01:11:54;23.92;;;12.70;;
41546;SDS011;27271;45.412;10.852;2023-03-14T01:15:17;25.40;;;13.25;;
41546;SDS011;27271;45.412;10.852;2023-03-14T01:18:40;28.80;;;13.60;;
41546;SDS011;27271;45.412;10.852;2023-03-14T01:22:04;27.42;;;13.30;;
41546;SDS011;27271;45.412;10.852;2023-03-14T01:25:27;29.55;;;13.77;;
41546;SDS011;27271;45.412;10.852;2023-03-14T01:28:49;25.85;;;13.05;;
41546;SDS011;27271;45.412;10.852;2023-03-14T01:32:13;26.88;;;12.65;;
41546;SDS011;27271;45.412;10.852;2023-03-14T01:35:35;26.08;;;12.98;;
41546;SDS011;27271;45.412;10.852;2023-03-14T01:38:57;25.52;;;13.88;;
41546;SDS011;27271;45.412;10.852;2023-03-14T01:42:20;24.55;;;13.30;;
41546;SDS011;27271;45.412;10.852;2023-03-14T01:49:28;23.80;;;12.95;;
41546;SDS011;27271;45.412;10.852;2023-03-14T01:53:00;23.60;;;12.77;;
41546;SDS011;27271;45.412;10.852;2023-03-14T01:56:23;24.20;;;12.27;;
41546;SDS011;27271;45.412;10.852;2023-03-14T01:59:46;22.73;;;11.68;;
41546;SDS011;27271;45.412;10.852;2023-03-14T02:03:16;25.90;;;11.65;;
41546;SDS011;27271;45.412;10.852;2023-03-14T02:10:53;24.25;;;10.35;;
41546;SDS011;27271;45.412;10.852;2023-03-14T02:14:32;18.40;;;10.35;;
41546;SDS011;27271;45.412;10.852;2023-03-14T02:18:18;20.48;;;10.45;;
41546;SDS011;27271;45.412;10.852;2023-03-14T02:22:09;23.70;;;10.38;;
41546;SDS011;27271;45.412;10.852;2023-03-14T02:26:10;19.92;;;10.05;;
41546;SDS011;27271;45.412;10.852;2023-03-14T02:29:39;19.48;;;9.48;;
41546;SDS011;27271;45.412;10.852;2023-03-14T02:33:11;20.20;;;10.63;;
41546;SDS011;27271;45.412;10.852;2023-03-14T02:36:40;22.48;;;10.70;;
41546;SDS011;27271;45.412;10.852;2023-03-14T02:40:04;17.20;;;8.88;;
41546;SDS011;27271;45.412;10.852;2023-03-14T02:43:29;21.73;;;9.40;;
41546;SDS011;27271;45.412;10.852;2023-03-14T02:46:56;16.67;;;9.38;;
41546;SDS011;27271;45.412;10.852;2023-03-14T02:50:30;22.05;;;9.27;;
41546;SDS011;27271;45.412;10.852;2023-03-14T02:53:56;17.23;;;8.98;;
41546;SDS011;27271;45.412;10.852;2023-03-14T02:57:20;17.85;;;9.25;;
41546;SDS011;27271;45.412;10.852;2023-03-14T03:00:50;17.52;;;8.60;;
41546;SDS011;27271;45.412;10.852;2023-03-14T03:04:17;15.63;;;8.45;;
41546;SDS011;27271;45.412;10.852;2023-03-14T03:07:41;16.45;;;8.45;;
41546;SDS011;27271;45.412;10.852;2023-03-14T03:11:04;16.65;;;7.70;;
41546;SDS011;27271;45.412;10.852;2023-03-14T03:14:28;14.38;;;7.55;;
41546;SDS011;27271;45.412;10.852;2023-03-14T03:17:53;15.00;;;8.07;;
41546;SDS011;27271;45.412;10.852;2023-03-14T03:21:15;15.35;;;8.00;;
41546;SDS011;27271;45.412;10.852;2023-03-14T03:24:39;16.67;;;8.20;;
41546;SDS011;27271;45.412;10.852;2023-03-14T03:28:02;19.48;;;8.10;;
41546;SDS011;27271;45.412;10.852;2023-03-14T03:34:53;15.95;;;7.57;;
41546;SDS011;27271;45.412;10.852;2023-03-14T03:38:15;17.63;;;6.72;;
41546;SDS011;27271;45.412;10.852;2023-03-14T03:41:39;15.57;;;7.90;;
41546;SDS011;27271;45.412;10.852;2023-03-14T03:45:02;15.57;;;7.90;;
41546;SDS011;27271;45.412;10.852;2023-03-14T03:48:27;13.02;;;7.85;;
41546;SDS011;27271;45.412;10.852;2023-03-14T03:51:49;14.82;;;7.97;;
41546;SDS011;27271;45.412;10.852;2023-03-14T03:55:11;17.83;;;7.63;;
41546;SDS011;27271;45.412;10.852;2023-03-14T03:58:33;12.95;;;6.72;;
41546;SDS011;27271;45.412;10.852;2023-03-14T04:01:56;15.25;;;6.32;;
41546;SDS011;27271;45.412;10.852;2023-03-14T04:05:18;14.23;;;7.18;;
41546;SDS011;27271;45.412;10.852;2023-03-14T04:08:50;12.52;;;6.45;;
41546;SDS011;27271;45.412;10.852;2023-03-14T04:12:32;12.25;;;6.70;;
41546;SDS011;27271;45.412;10.852;2023-03-14T04:16:14;12.52;;;6.53;;
41546;SDS011;27271;45.412;10.852;2023-03-14T04:19:53;11.80;;;5.97;;
41546;SDS011;27271;45.412;10.852;2023-03-14T04:23:21;12.25;;;6.40;;
41546;SDS011;27271;45.412;10.852;2023-03-14T04:26:45;17.55;;;6.90;;
41546;SDS011;27271;45.412;10.852;2023-03-14T04:30:09;12.55;;;6.70;;
41546;SDS011;27271;45.412;10.852;2023-03-14T04:33:40;14.80;;;6.95;;
41546;SDS011;27271;45.412;10.852;2023-03-14T04:37:07;14.73;;;5.88;;
41546;SDS011;27271;45.412;10.852;2023-03-14T04:40:36;18.30;;;7.43;;
41546;SDS011;27271;45.412;10.852;2023-03-14T04:44:01;12.60;;;5.93;;
41546;SDS011;27271;45.412;10.852;2023-03-14T04:47:24;10.57;;;4.97;;
41546;SDS011;27271;45.412;10.852;2023-03-14T04:50:48;13.93;;;7.35;;
41546;SDS011;27271;45.412;10.852;2023-03-14T04:54:10;12.82;;;5.93;;
41546;SDS011;27271;45.412;10.852;2023-03-14T04:57:32;13.52;;;5.75;;
41546;SDS011;27271;45.412;10.852;2023-03-14T05:00:55;11.57;;;5.97;;
41546;SDS011;27271;45.412;10.852;2023-03-14T05:04:35;9.52;;;5.60;;
41546;SDS011;27271;45.412;10.852;2023-03-14T05:08:10;11.02;;;6.13;;
41546;SDS011;27271;45.412;10.852;2023-03-14T05:11:53;16.20;;;6.15;;
41546;SDS011;27271;45.412;10.852;2023-03-14T05:15:35;11.45;;;6.03;;
41546;SDS011;27271;45.412;10.852;2023-03-14T05:19:03;14.98;;;6.13;;
41546;SDS011;27271;45.412;10.852;2023-03-14T05:22:52;16.95;;;6.65;;
41546;SDS011;27271;45.412;10.852;2023-03-14T05:26:38;10.73;;;5.88;;
41546;SDS011;27271;45.412;10.852;2023-03-14T05:30:28;9.55;;;4.60;;
41546;SDS011;27271;45.412;10.852;2023-03-14T05:34:12;9.73;;;4.85;;
41546;SDS011;27271;45.412;10.852;2023-03-14T05:37:46;8.82;;;5.03;;
41546;SDS011;27271;45.412;10.852;2023-03-14T05:41:29;11.55;;;5.20;;
41546;SDS011;27271;45.412;10.852;2023-03-14T05:45:10;12.00;;;5.10;;
41546;SDS011;27271;45.412;10.852;2023-03-14T05:48:51;13.35;;;5.15;;
41546;SDS011;27271;45.412;10.852;2023-03-14T05:52:32;14.18;;;5.40;;
41546;SDS011;27271;45.412;10.852;2023-03-14T05:56:09;12.30;;;5.03;;
41546;SDS011;27271;45.412;10.852;2023-03-14T05:59:54;15.18;;;5.82;;
41546;SDS011;27271;45.412;10.852;2023-03-14T06:03:33;22.48;;;6.60;;
41546;SDS011;27271;45.412;10.852;2023-03-14T06:06:55;18.58;;;7.00;;
41546;SDS011;27271;45.412;10.852;2023-03-14T06:10:17;18.20;;;7.03;;
41546;SDS011;27271;45.412;10.852;2023-03-14T06:13:40;12.35;;;5.90;;
41546;SDS011;27271;45.412;10.852;2023-03-14T06:17:03;10.63;;;5.82;;
41546;SDS011;27271;45.412;10.852;2023-03-14T06:20:32;12.80;;;6.25;;
41546;SDS011;27271;45.412;10.852;2023-03-14T06:23:55;15.50;;;6.90;;
41546;SDS011;27271;45.412;10.852;2023-03-14T06:27:21;14.40;;;6.70;;
41546;SDS011;27271;45.412;10.852;2023-03-14T06:30:47;13.30;;;6.53;;
41546;SDS011;27271;45.412;10.852;2023-03-14T06:34:09;17.20;;;7.03;;
41546;SDS011;27271;45.412;10.852;2023-03-14T06:37:33;18.15;;;7.15;;
41546;SDS011;27271;45.412;10.852;2023-03-14T06:40:56;13.50;;;6.45;;
41546;SDS011;27271;45.412;10.852;2023-03-14T06:44:29;13.98;;;6.50;;
41546;SDS011;27271;45.412;10.852;2023-03-14T06:47:51;17.35;;;6.95;;
41546;SDS011;27271;45.412;10.852;2023-03-14T06:51:21;18.00;;;8.05;;
41546;SDS011;27271;45.412;10.852;2023-03-14T06:54:44;19.10;;;8.23;;
41546;SDS011;27271;45.412;10.852;2023-03-14T06:58:06;17.20;;;8.32;;
41546;SDS011;27271;45.412;10.852;2023-03-14T07:01:35;16.42;;;6.78;;
41546;SDS011;27271;45.412;10.852;2023-03-14T07:05:00;18.30;;;8.10;;
41546;SDS011;27271;45.412;10.852;2023-03-14T07:08:23;15.88;;;7.85;;
41546;SDS011;27271;45.412;10.852;2023-03-14T07:11:45;22.17;;;8.48;;
41546;SDS011;27271;45.412;10.852;2023-03-14T07:15:08;21.08;;;7.80;;
41546;SDS011;27271;45.412;10.852;2023-03-14T07:18:43;19.00;;;9.38;;
41546;SDS011;27271;45.412;10.852;2023-03-14T07:22:05;19.50;;;8.93;;
41546;SDS011;27271;45.412;10.852;2023-03-14T07:25:27;19.67;;;9.05;;
41546;SDS011;27271;45.412;10.852;2023-03-14T07:28:49;24.42;;;9.23;;
41546;SDS011;27271;45.412;10.852;2023-03-14T07:32:13;21.77;;;8.38;;
41546;SDS011;27271;45.412;10.852;2023-03-14T07:35:37;18.92;;;8.50;;
41546;SDS011;27271;45.412;10.852;2023-03-14T07:39:00;24.02;;;10.10;;
41546;SDS011;27271;45.412;10.852;2023-03-14T07:42:34;22.80;;;8.98;;
41546;SDS011;27271;45.412;10.852;2023-03-14T07:46:09;20.55;;;8.30;;
41546;SDS011;27271;45.412;10.852;2023-03-14T07:49:31;20.90;;;8.73;;
41546;SDS011;27271;45.412;10.852;2023-03-14T07:52:53;18.13;;;7.50;;
41546;SDS011;27271;45.412;10.852;2023-03-14T07:56:16;16.77;;;7.25;;
41546;SDS011;27271;45.412;10.852;2023-03-14T07:59:38;20.88;;;7.72;;
41546;SDS011;27271;45.412;10.852;2023-03-14T08:03:00;20.35;;;8.15;;
41546;SDS011;27271;45.412;10.852;2023-03-14T08:06:22;18.35;;;7.35;;
41546;SDS011;27271;45.412;10.852;2023-03-14T08:09:44;16.27;;;7.43;;
41546;SDS011;27271;45.412;10.852;2023-03-14T08:13:06;20.45;;;7.22;;
41546;SDS011;27271;45.412;10.852;2023-03-14T08:16:28;23.08;;;8.02;;
41546;SDS011;27271;45.412;10.852;2023-03-14T08:19:50;19.00;;;7.18;;
41546;SDS011;27271;45.412;10.852;2023-03-14T08:23:12;16.88;;;6.15;;
41546;SDS011;27271;45.412;10.852;2023-03-14T08:26:34;18.63;;;7.25;;
41546;SDS011;27271;45.412;10.852;2023-03-14T08:29:56;22.10;;;7.68;;
41546;SDS011;27271;45.412;10.852;2023-03-14T08:33:19;19.17;;;7.47;;
41546;SDS011;27271;45.412;10.852;2023-03-14T08:36:41;17.17;;;6.95;;
41546;SDS011;27271;45.412;10.852;2023-03-14T08:40:04;16.08;;;6.80;;
41546;SDS011;27271;45.412;10.852;2023-03-14T08:43:31;15.27;;;6.65;;
41546;SDS011;27271;45.412;10.852;2023-03-14T08:46:53;13.98;;;6.82;;
41546;SDS011;27271;45.412;10.852;2023-03-14T08:50:15;12.73;;;6.65;;
41546;SDS011;27271;45.412;10.852;2023-03-14T08:53:37;15.93;;;6.93;;
41546;SDS011;27271;45.412;10.852;2023-03-14T08:56:59;17.15;;;6.50;;
41546;SDS011;27271;45.412;10.852;2023-03-14T09:00:22;14.52;;;6.40;;
41546;SDS011;27271;45.412;10.852;2023-03-14T09:03:44;18.15;;;7.35;;
41546;SDS011;27271;45.412;10.852;2023-03-14T09:07:07;13.40;;;6.05;;
41546;SDS011;27271;45.412;10.852;2023-03-14T09:10:29;13.35;;;6.00;;
41546;SDS011;27271;45.412;10.852;2023-03-14T09:13:51;14.32;;;6.50;;
41546;SDS011;27271;45.412;10.852;2023-03-14T09:17:13;15.23;;;6.03;;
41546;SDS011;27271;45.412;10.852;2023-03-14T09:20:35;18.10;;;6.43;;
41546;SDS011;27271;45.412;10.852;2023-03-14T09:23:57;14.55;;;6.30;;
41546;SDS011;27271;45.412;10.852;2023-03-14T09:27:19;16.55;;;7.00;;
41546;SDS011;27271;45.412;10.852;2023-03-14T09:30:41;16.05;;;7.55;;
41546;SDS011;27271;45.412;10.852;2023-03-14T09:34:03;11.88;;;5.93;;
41546;SDS011;27271;45.412;10.852;2023-03-14T09:37:26;12.50;;;6.68;;
41546;SDS011;27271;45.412;10.852;2023-03-14T09:40:48;14.40;;;6.15;;
41546;SDS011;27271;45.412;10.852;2023-03-14T09:44:16;17.98;;;7.07;;
41546;SDS011;27271;45.412;10.852;2023-03-14T09:47:42;20.42;;;6.15;;
41546;SDS011;27271;45.412;10.852;2023-03-14T09:51:19;15.20;;;6.03;;
41546;SDS011;27271;45.412;10.852;2023-03-14T09:54:49;13.20;;;6.18;;
41546;SDS011;27271;45.412;10.852;2023-03-14T09:58:14;12.77;;;5.55;;
41546;SDS011;27271;45.412;10.852;2023-03-14T10:01:40;9.55;;;6.20;;
41546;SDS011;27271;45.412;10.852;2023-03-14T10:05:04;13.98;;;5.40;;
41546;SDS011;27271;45.412;10.852;2023-03-14T10:08:35;11.50;;;5.55;;
41546;SDS011;27271;45.412;10.852;2023-03-14T10:12:00;12.05;;;5.22;;
41546;SDS011;27271;45.412;10.852;2023-03-14T10:15:30;13.17;;;5.23;;
41546;SDS011;27271;45.412;10.852;2023-03-14T10:18:54;12.50;;;5.40;;
41546;SDS011;27271;45.412;10.852;2023-03-14T10:22:24;11.43;;;5.82;;
41546;SDS011;27271;45.412;10.852;2023-03-14T10:29:28;13.05;;;5.90;;
41546;SDS011;27271;45.412;10.852;2023-03-14T10:32:54;13.23;;;5.95;;
41546;SDS011;27271;45.412;10.852;2023-03-14T10:36:29;14.23;;;5.90;;
41546;SDS011;27271;45.412;10.852;2023-03-14T10:39:53;17.42;;;6.47;;
41546;SDS011;27271;45.412;10.852;2023-03-14T10:43:24;13.00;;;6.22;;
41546;SDS011;27271;45.412;10.852;2023-03-14T10:47:00;12.68;;;5.93;;
41546;SDS011;27271;45.412;10.852;2023-03-14T10:50:29;15.75;;;6.40;;
41546;SDS011;27271;45.412;10.852;2023-03-14T10:54:03;15.95;;;6.70;;
41546;SDS011;27271;45.412;10.852;2023-03-14T10:57:38;15.10;;;6.13;;
41546;SDS011;27271;45.412;10.852;2023-03-14T11:08:26;15.05;;;5.90;;
41546;SDS011;27271;45.412;10.852;2023-03-14T11:12:02;13.57;;;5.63;;
41546;SDS011;27271;45.412;10.852;2023-03-14T11:20:09;14.57;;;6.53;;
41546;SDS011;27271;45.412;10.852;2023-03-14T11:24:27;12.75;;;6.03;;
41546;SDS011;27271;45.412;10.852;2023-03-14T11:27:50;10.65;;;5.53;;
41546;SDS011;27271;45.412;10.852;2023-03-14T11:31:40;12.75;;;6.03;;
41546;SDS011;27271;45.412;10.852;2023-03-14T11:38:51;12.73;;;5.65;;
41546;SDS011;27271;45.412;10.852;2023-03-14T11:42:16;18.33;;;6.78;;
41546;SDS011;27271;45.412;10.852;2023-03-14T11:45:39;11.70;;;6.65;;
41546;SDS011;27271;45.412;10.852;2023-03-14T11:49:06;18.10;;;6.88;;
41546;SDS011;27271;45.412;10.852;2023-03-14T11:52:52;13.05;;;6.78;;
41546;SDS011;27271;45.412;10.852;2023-03-14T11:56:24;13.00;;;6.10;;
41546;SDS011;27271;45.412;10.852;2023-03-14T12:03:48;13.50;;;6.40;;
41546;SDS011;27271;45.412;10.852;2023-03-14T12:07:24;13.75;;;6.75;;
41546;SDS011;27271;45.412;10.852;2023-03-14T12:11:18;14.20;;;6.57;;
41546;SDS011;27271;45.412;10.852;2023-03-14T12:14:52;17.60;;;6.80;;
41546;SDS011;27271;45.412;10.852;2023-03-14T12:18:29;10.85;;;6.13;;
41546;SDS011;27271;45.412;10.852;2023-03-14T12:25:22;15.80;;;6.65;;
41546;SDS011;27271;45.412;10.852;2023-03-14T12:32:31;11.40;;;5.70;;
41546;SDS011;27271;45.412;10.852;2023-03-14T12:36:00;13.15;;;6.43;;
41546;SDS011;27271;45.412;10.852;2023-03-14T12:39:39;18.23;;;6.78;;
41546;SDS011;27271;45.412;10.852;2023-03-14T12:43:25;15.13;;;6.97;;
41546;SDS011;27271;45.412;10.852;2023-03-14T12:46:52;14.52;;;6.30;;
41546;SDS011;27271;45.412;10.852;2023-03-14T12:50:16;16.65;;;7.47;;
41546;SDS011;27271;45.412;10.852;2023-03-14T12:54:04;15.05;;;6.10;;
41546;SDS011;27271;45.412;10.852;2023-03-14T13:01:32;12.90;;;7.50;;
41546;SDS011;27271;45.412;10.852;2023-03-14T13:05:03;11.90;;;6.57;;
41546;SDS011;27271;45.412;10.852;2023-03-14T13:12:03;9.13;;;5.65;;
41546;SDS011;27271;45.412;10.852;2023-03-14T13:15:33;11.23;;;5.60;;
41546;SDS011;27271;45.412;10.852;2023-03-14T13:19:00;8.63;;;5.25;;
41546;SDS011;27271;45.412;10.852;2023-03-14T13:22:27;9.88;;;5.50;;
41546;SDS011;27271;45.412;10.852;2023-03-14T13:25:52;16.48;;;6.78;;
41546;SDS011;27271;45.412;10.852;2023-03-14T13:32:39;11.38;;;6.05;;
41546;SDS011;27271;45.412;10.852;2023-03-14T13:36:04;9.23;;;6.55;;
41546;SDS011;27271;45.412;10.852;2023-03-14T13:39:27;11.45;;;6.03;;
41546;SDS011;27271;45.412;10.852;2023-03-14T13:42:58;10.07;;;5.25;;
41546;SDS011;27271;45.412;10.852;2023-03-14T13:46:26;9.40;;;5.25;;
41546;SDS011;27271;45.412;10.852;2023-03-14T13:49:48;5.78;;;3.95;;
41546;SDS011;27271;45.412;10.852;2023-03-14T13:53:11;7.18;;;3.78;;
41546;SDS011;27271;45.412;10.852;2023-03-14T13:56:33;6.13;;;3.60;;
41546;SDS011;27271;45.412;10.852;2023-03-14T14:00:00;8.23;;;3.30;;
41546;SDS011;27271;45.412;10.852;2023-03-14T14:03:34;8.32;;;4.55;;
41546;SDS011;27271;45.412;10.852;2023-03-14T14:07:00;10.23;;;3.97;;
41546;SDS011;27271;45.412;10.852;2023-03-14T14:10:29;10.07;;;4.53;;
41546;SDS011;27271;45.412;10.852;2023-03-14T14:13:51;7.25;;;4.13;;
41546;SDS011;27271;45.412;10.852;2023-03-14T14:17:24;7.65;;;4.20;;
41546;SDS011;27271;45.412;10.852;2023-03-14T14:21:02;9.23;;;4.25;;
41546;SDS011;27271;45.412;10.852;2023-03-14T14:24:28;5.82;;;3.97;;
41546;SDS011;27271;45.412;10.852;2023-03-14T14:27:52;7.40;;;4.57;;
41546;SDS011;27271;45.412;10.852;2023-03-14T14:38:02;8.00;;;4.03;;
41546;SDS011;27271;45.412;10.852;2023-03-14T14:41:35;8.02;;;3.65;;
41546;SDS011;27271;45.412;10.852;2023-03-14T14:45:02;6.82;;;4.03;;
41546;SDS011;27271;45.412;10.852;2023-03-14T14:48:25;5.70;;;3.13;;
41546;SDS011;27271;45.412;10.852;2023-03-14T14:51:49;6.15;;;2.90;;
41546;SDS011;27271;45.412;10.852;2023-03-14T14:55:20;6.80;;;3.38;;
41546;SDS011;27271;45.412;10.852;2023-03-14T14:58:46;3.83;;;2.22;;
41546;SDS011;27271;45.412;10.852;2023-03-14T15:02:09;4.95;;;2.22;;
41546;SDS011;27271;45.412;10.852;2023-03-14T15:05:48;5.45;;;2.50;;
41546;SDS011;27271;45.412;10.852;2023-03-14T15:09:11;4.00;;;2.90;;
41546;SDS011;27271;45.412;10.852;2023-03-14T15:12:33;3.20;;;2.40;;
41546;SDS011;27271;45.412;10.852;2023-03-14T15:15:55;5.50;;;2.95;;
41546;SDS011;27271;45.412;10.852;2023-03-14T15:19:21;6.45;;;3.55;;
41546;SDS011;27271;45.412;10.852;2023-03-14T15:22:46;6.88;;;4.07;;
41546;SDS011;27271;45.412;10.852;2023-03-14T15:26:19;7.57;;;3.97;;
41546;SDS011;27271;45.412;10.852;2023-03-14T15:29:43;12.18;;;4.60;;
41546;SDS011;27271;45.412;10.852;2023-03-14T15:33:06;6.20;;;4.07;;
41546;SDS011;27271;45.412;10.852;2023-03-14T15:36:33;6.45;;;3.78;;
41546;SDS011;27271;45.412;10.852;2023-03-14T15:39:56;8.15;;;4.53;;
41546;SDS011;27271;45.412;10.852;2023-03-14T15:43:19;11.68;;;4.78;;
41546;SDS011;27271;45.412;10.852;2023-03-14T15:46:41;9.93;;;4.75;;
41546;SDS011;27271;45.412;10.852;2023-03-14T15:50:03;7.05;;;3.83;;
41546;SDS011;27271;45.412;10.852;2023-03-14T15:53:26;8.20;;;4.55;;
41546;SDS011;27271;45.412;10.852;2023-03-14T15:56:48;8.77;;;4.32;;
41546;SDS011;27271;45.412;10.852;2023-03-14T16:00:14;7.68;;;3.90;;
41546;SDS011;27271;45.412;10.852;2023-03-14T16:03:39;11.95;;;4.40;;
41546;SDS011;27271;45.412;10.852;2023-03-14T16:07:01;6.90;;;4.55;;
41546;SDS011;27271;45.412;10.852;2023-03-14T16:10:25;13.05;;;5.38;;
41546;SDS011;27271;45.412;10.852;2023-03-14T16:13:50;9.15;;;4.85;;
41546;SDS011;27271;45.412;10.852;2023-03-14T16:17:14;11.70;;;5.35;;
41546;SDS011;27271;45.412;10.852;2023-03-14T16:20:36;9.38;;;4.82;;
41546;SDS011;27271;45.412;10.852;2023-03-14T16:24:08;8.63;;;4.47;;
41546;SDS011;27271;45.412;10.852;2023-03-14T16:27:30;6.10;;;4.57;;
41546;SDS011;27271;45.412;10.852;2023-03-14T16:30:55;8.27;;;4.22;;
41546;SDS011;27271;45.412;10.852;2023-03-14T16:34:21;7.90;;;4.60;;
41546;SDS011;27271;45.412;10.852;2023-03-14T16:37:44;8.23;;;5.10;;
41546;SDS011;27271;45.412;10.852;2023-03-14T16:41:07;6.57;;;4.95;;
41546;SDS011;27271;45.412;10.852;2023-03-14T16:44:34;8.57;;;5.32;;
41546;SDS011;27271;45.412;10.852;2023-03-14T16:47:57;8.10;;;4.70;;
41546;SDS011;27271;45.412;10.852;2023-03-14T16:51:20;8.73;;;5.72;;
41546;SDS011;27271;45.412;10.852;2023-03-14T16:54:43;9.10;;;5.38;;
41546;SDS011;27271;45.412;10.852;2023-03-14T16:58:05;9.65;;;5.35;;
41546;SDS011;27271;45.412;10.852;2023-03-14T17:01:27;9.10;;;5.60;;
41546;SDS011;27271;45.412;10.852;2023-03-14T17:04:49;9.15;;;5.55;;
41546;SDS011;27271;45.412;10.852;2023-03-14T17:08:11;11.30;;;5.95;;
41546;SDS011;27271;45.412;10.852;2023-03-14T17:11:42;12.82;;;6.63;;
41546;SDS011;27271;45.412;10.852;2023-03-14T17:15:05;21.73;;;9.43;;
41546;SDS011;27271;45.412;10.852;2023-03-14T17:18:32;15.73;;;8.48;;
41546;SDS011;27271;45.412;10.852;2023-03-14T17:21:58;15.05;;;7.65;;
41546;SDS011;27271;45.412;10.852;2023-03-14T17:25:39;10.15;;;6.25;;
41546;SDS011;27271;45.412;10.852;2023-03-14T17:29:01;11.73;;;6.28;;
41546;SDS011;27271;45.412;10.852;2023-03-14T17:32:24;14.07;;;8.65;;
41546;SDS011;27271;45.412;10.852;2023-03-14T17:35:47;12.45;;;8.05;;
41546;SDS011;27271;45.412;10.852;2023-03-14T17:39:09;15.07;;;8.73;;
41546;SDS011;27271;45.412;10.852;2023-03-14T17:42:31;12.25;;;8.00;;
41546;SDS011;27271;45.412;10.852;2023-03-14T17:45:56;15.88;;;8.00;;
41546;SDS011;27271;45.412;10.852;2023-03-14T17:49:19;16.92;;;10.18;;
41546;SDS011;27271;45.412;10.852;2023-03-14T17:52:41;14.57;;;8.48;;
41546;SDS011;27271;45.412;10.852;2023-03-14T17:56:04;13.73;;;7.38;;
41546;SDS011;27271;45.412;10.852;2023-03-14T17:59:26;14.73;;;7.65;;
41546;SDS011;27271;45.412;10.852;2023-03-14T18:02:48;14.38;;;8.02;;
41546;SDS011;27271;45.412;10.852;2023-03-14T18:06:12;18.70;;;9.50;;
41546;SDS011;27271;45.412;10.852;2023-03-14T18:09:34;20.25;;;9.80;;
41546;SDS011;27271;45.412;10.852;2023-03-14T18:12:56;22.75;;;12.15;;
41546;SDS011;27271;45.412;10.852;2023-03-14T18:16:18;19.35;;;11.32;;
41546;SDS011;27271;45.412;10.852;2023-03-14T18:19:42;23.88;;;12.73;;
41546;SDS011;27271;45.412;10.852;2023-03-14T18:23:04;14.55;;;9.32;;
41546;SDS011;27271;45.412;10.852;2023-03-14T18:26:27;17.65;;;10.52;;
41546;SDS011;27271;45.412;10.852;2023-03-14T18:29:49;19.67;;;11.13;;
41546;SDS011;27271;45.412;10.852;2023-03-14T18:33:11;17.77;;;10.57;;
41546;SDS011;27271;45.412;10.852;2023-03-14T18:36:33;21.45;;;10.82;;
41546;SDS011;27271;45.412;10.852;2023-03-14T18:39:55;15.45;;;9.35;;
41546;SDS011;27271;45.412;10.852;2023-03-14T18:43:17;20.73;;;11.07;;
41546;SDS011;27271;45.412;10.852;2023-03-14T18:46:41;20.40;;;10.23;;
41546;SDS011;27271;45.412;10.852;2023-03-14T18:50:06;24.85;;;12.05;;
41546;SDS011;27271;45.412;10.852;2023-03-14T18:53:31;23.05;;;11.80;;
41546;SDS011;27271;45.412;10.852;2023-03-14T18:56:59;19.40;;;10.73;;
41546;SDS011;27271;45.412;10.852;2023-03-14T19:00:22;20.30;;;12.60;;
41546;SDS011;27271;45.412;10.852;2023-03-14T19:03:47;19.30;;;11.13;;
41546;SDS011;27271;45.412;10.852;2023-03-14T19:07:09;21.15;;;11.63;;
41546;SDS011;27271;45.412;10.852;2023-03-14T19:10:34;18.85;;;11.77;;
41546;SDS011;27271;45.412;10.852;2023-03-14T19:13:56;17.98;;;11.07;;
41546;SDS011;27271;45.412;10.852;2023-03-14T19:17:20;21.50;;;11.73;;
41546;SDS011;27271;45.412;10.852;2023-03-14T19:20:42;18.20;;;11.93;;
41546;SDS011;27271;45.412;10.852;2023-03-14T19:24:05;15.82;;;10.30;;
41546;SDS011;27271;45.412;10.852;2023-03-14T19:27:27;19.40;;;11.00;;
41546;SDS011;27271;45.412;10.852;2023-03-14T19:30:50;22.23;;;12.32;;
41546;SDS011;27271;45.412;10.852;2023-03-14T19:34:13;23.00;;;12.73;;
41546;SDS011;27271;45.412;10.852;2023-03-14T19:37:35;21.27;;;11.65;;
41546;SDS011;27271;45.412;10.852;2023-03-14T19:40:59;20.92;;;12.20;;
41546;SDS011;27271;45.412;10.852;2023-03-14T19:44:21;21.67;;;14.90;;
41546;SDS011;27271;45.412;10.852;2023-03-14T19:47:44;23.38;;;15.10;;
41546;SDS011;27271;45.412;10.852;2023-03-14T19:51:07;19.00;;;13.18;;
41546;SDS011;27271;45.412;10.852;2023-03-14T19:54:30;27.33;;;18.13;;
41546;SDS011;27271;45.412;10.852;2023-03-14T19:57:52;22.88;;;14.43;;
41546;SDS011;27271;45.412;10.852;2023-03-14T20:01:14;28.52;;;15.43;;
41546;SDS011;27271;45.412;10.852;2023-03-14T20:04:36;27.67;;;15.63;;
41546;SDS011;27271;45.412;10.852;2023-03-14T20:07:58;25.10;;;14.07;;
41546;SDS011;27271;45.412;10.852;2023-03-14T20:11:20;29.65;;;16.50;;
41546;SDS011;27271;45.412;10.852;2023-03-14T20:14:42;24.73;;;14.25;;
41546;SDS011;27271;45.412;10.852;2023-03-14T20:18:04;25.65;;;14.80;;
41546;SDS011;27271;45.412;10.852;2023-03-14T20:21:26;26.67;;;15.88;;
41546;SDS011;27271;45.412;10.852;2023-03-14T20:24:49;26.60;;;14.65;;
41546;SDS011;27271;45.412;10.852;2023-03-14T20:28:12;28.05;;;15.88;;
41546;SDS011;27271;45.412;10.852;2023-03-14T20:31:34;27.83;;;13.95;;
41546;SDS011;27271;45.412;10.852;2023-03-14T20:34:58;29.65;;;17.80;;
41546;SDS011;27271;45.412;10.852;2023-03-14T20:38:22;26.30;;;15.63;;
41546;SDS011;27271;45.412;10.852;2023-03-14T20:41:46;26.25;;;13.80;;
41546;SDS011;27271;45.412;10.852;2023-03-14T20:45:08;21.50;;;13.57;;
41546;SDS011;27271;45.412;10.852;2023-03-14T20:48:31;23.58;;;12.27;;
41546;SDS011;27271;45.412;10.852;2023-03-14T20:51:53;25.17;;;14.43;;
41546;SDS011;27271;45.412;10.852;2023-03-14T20:55:15;28.67;;;14.90;;
41546;SDS011;27271;45.412;10.852;2023-03-14T20:58:37;29.55;;;15.77;;
41546;SDS011;27271;45.412;10.852;2023-03-14T21:01:59;27.65;;;15.57;;
41546;SDS011;27271;45.412;10.852;2023-03-14T21:05:22;27.38;;;14.88;;